Time;durP1;ratioP1;P1;durP2;ratioP2;P2;SDS_P1;SDS_P2;PMS_P1;PMS_P2;Temp;Humidity;BMP_temperature;BMP_pressure;BME280_temperature;BME280_humidity;BME280_pressure;Samples;Min_cycle;Max_cycle;Signal;HPM_P1;HPM_P2
2021/10/19 00:00:59;;;;;;;1.23;1.10;;;7.70;99.90;;;;;;5060412;28;20185;-79
2021/10/19 00:03:25;;;;;;;1.03;0.90;;;7.80;99.90;;;;;;5061844;28;20190;-80
2021/10/19 00:05:51;;;;;;;0.73;0.53;;;7.90;99.90;;;;;;5045060;28;20190;-80
2021/10/19 00:08:16;;;;;;;0.50;0.50;;;8.10;99.90;;;;;;5049220;28;20197;-80
2021/10/19 00:10:42;;;;;;;0.90;0.60;;;8.20;99.90;;;;;;5069935;28;20230;-80
2021/10/19 00:13:08;;;;;;;1.37;0.63;;;8.40;99.90;;;;;;5063930;28;20202;-80
2021/10/19 00:15:33;;;;;;;1.53;0.53;;;8.50;99.90;;;;;;5052643;28;20193;-80
2021/10/19 00:17:59;;;;;;;0.43;0.43;;;8.60;99.90;;;;;;5060326;28;20208;-80
2021/10/19 00:20:24;;;;;;;1.20;0.50;;;8.60;99.90;;;;;;5064516;28;20177;-80
2021/10/19 00:22:50;;;;;;;1.07;0.97;;;8.60;99.90;;;;;;5054493;28;20284;-80
2021/10/19 00:25:17;;;;;;;0.67;0.63;;;8.60;99.90;;;;;;5064403;28;20551;-80
2021/10/19 00:27:43;;;;;;;0.70;0.70;;;8.60;99.90;;;;;;5053361;28;20202;-80
2021/10/19 00:30:10;;;;;;;0.53;0.50;;;8.40;99.90;;;;;;5054201;28;20204;-80
2021/10/19 00:32:40;;;;;;;0.73;0.73;;;8.30;99.90;;;;;;5060779;28;20205;-80
2021/10/19 00:35:07;;;;;;;0.90;0.87;;;8.20;99.90;;;;;;5056831;28;20679;-80
2021/10/19 00:37:32;;;;;;;1.20;0.87;;;8.10;99.90;;;;;;5060099;28;20202;-79
2021/10/19 00:39:58;;;;;;;1.00;0.43;;;8.00;99.90;;;;;;5043933;28;20183;-80
2021/10/19 00:42:24;;;;;;;1.07;0.97;;;8.10;99.90;;;;;;5060133;28;20223;-80
2021/10/19 00:44:49;;;;;;;1.23;0.60;;;8.00;99.90;;;;;;5068366;28;20180;-80
2021/10/19 00:47:19;;;;;;;0.63;0.60;;;8.10;99.90;;;;;;5062021;28;20194;-80
2021/10/19 00:49:49;;;;;;;1.90;0.83;;;8.10;99.90;;;;;;5064995;28;20187;-80
2021/10/19 00:52:17;;;;;;;0.40;0.40;;;8.30;99.90;;;;;;5058371;28;20210;-80
2021/10/19 00:54:43;;;;;;;1.50;1.40;;;8.50;99.90;;;;;;5062488;28;20253;-80
2021/10/19 00:57:10;;;;;;;0.77;0.63;;;8.60;99.90;;;;;;5054815;28;20268;-80
2021/10/19 00:59:41;;;;;;;1.37;1.10;;;8.70;99.90;;;;;;5062374;28;20180;-80
2021/10/19 01:02:07;;;;;;;2.63;0.80;;;8.90;99.90;;;;;;5055454;28;20191;-80
2021/10/19 01:04:32;;;;;;;0.77;0.77;;;8.90;99.90;;;;;;5061300;28;20183;-80
2021/10/19 01:06:58;;;;;;;0.30;0.30;;;9.00;99.90;;;;;;5086328;28;20210;-80
2021/10/19 01:09:24;;;;;;;1.23;0.87;;;9.10;99.90;;;;;;5044396;28;20184;-80
2021/10/19 01:11:49;;;;;;;2.50;0.60;;;9.10;99.90;;;;;;5057426;28;20612;-80
2021/10/19 01:14:15;;;;;;;1.23;1.13;;;9.00;99.90;;;;;;5054857;28;20183;-80
2021/10/19 01:16:40;;;;;;;0.87;0.70;;;8.90;99.90;;;;;;5060743;28;20211;-80
2021/10/19 01:19:06;;;;;;;0.50;0.50;;;8.90;99.90;;;;;;5054180;28;20181;-80
2021/10/19 01:21:32;;;;;;;1.53;1.10;;;8.80;99.90;;;;;;5053049;28;20267;-80
2021/10/19 01:23:57;;;;;;;0.73;0.73;;;8.70;99.90;;;;;;5064972;28;20200;-80
2021/10/19 01:26:23;;;;;;;0.80;0.80;;;8.90;99.90;;;;;;5062106;28;20297;-80
2021/10/19 01:28:49;;;;;;;1.40;1.30;;;9.00;99.90;;;;;;5060710;28;20195;-80
2021/10/19 01:31:15;;;;;;;1.97;1.53;;;9.10;99.90;;;;;;5067860;28;20263;-80
2021/10/19 01:33:41;;;;;;;0.70;0.70;;;9.10;99.90;;;;;;5053214;28;20219;-80
2021/10/19 01:36:09;;;;;;;2.03;1.53;;;9.10;99.90;;;;;;5059004;28;20653;-80
2021/10/19 01:38:35;;;;;;;0.73;0.60;;;9.20;99.90;;;;;;5059200;28;20179;-80
2021/10/19 01:41:02;;;;;;;0.40;0.40;;;9.20;99.90;;;;;;5048722;28;20710;-80
2021/10/19 01:43:29;;;;;;;0.77;0.50;;;9.30;99.90;;;;;;5051859;28;20199;-80
2021/10/19 01:45:57;;;;;;;1.20;1.03;;;9.30;99.90;;;;;;5057298;28;20677;-80
2021/10/19 01:48:24;;;;;;;0.50;0.50;;;9.30;99.90;;;;;;5055059;28;20189;-80
2021/10/19 01:50:49;;;;;;;0.40;0.40;;;9.30;99.90;;;;;;5055493;28;20193;-81
2021/10/19 01:53:16;;;;;;;1.57;0.73;;;9.30;99.90;;;;;;5052866;28;20209;-80
2021/10/19 01:55:42;;;;;;;0.60;0.60;;;9.10;99.90;;;;;;5052151;28;20553;-80
2021/10/19 01:58:09;;;;;;;2.40;1.43;;;9.20;99.90;;;;;;5052814;28;20212;-80
2021/10/19 02:00:36;;;;;;;0.60;0.60;;;9.30;99.90;;;;;;5051299;28;20180;-80
2021/10/19 02:03:09;;;;;;;0.50;0.50;;;9.30;99.90;;;;;;5056958;28;20185;-80
2021/10/19 02:05:35;;;;;;;0.70;0.70;;;9.40;99.90;;;;;;5062688;28;20267;-80
2021/10/19 02:08:03;;;;;;;1.07;0.53;;;9.40;99.90;;;;;;5059388;28;20242;-81
2021/10/19 02:10:29;;;;;;;0.97;0.87;;;9.40;99.90;;;;;;5069564;28;20313;-80
2021/10/19 02:12:55;;;;;;;1.27;1.13;;;9.50;99.90;;;;;;5062287;28;20207;-80
2021/10/19 02:15:25;;;;;;;0.50;0.43;;;9.40;99.90;;;;;;5058631;28;20173;-80
2021/10/19 02:17:51;;;;;;;1.77;1.67;;;9.40;99.90;;;;;;5053130;28;20255;-81
2021/10/19 02:20:17;;;;;;;4.27;1.60;;;9.10;99.90;;;;;;5059123;28;20192;-80
2021/10/19 02:22:43;;;;;;;1.03;0.97;;;9.10;99.90;;;;;;5063571;28;20184;-80
2021/10/19 02:25:08;;;;;;;1.00;0.90;;;9.00;99.90;;;;;;5061731;28;20198;-80
2021/10/19 02:27:34;;;;;;;0.87;0.87;;;9.00;99.90;;;;;;5054223;28;20225;-81
2021/10/19 02:30:00;;;;;;;1.23;0.93;;;8.90;99.90;;;;;;5059659;28;20562;-80
2021/10/19 02:32:25;;;;;;;1.40;1.37;;;8.90;99.90;;;;;;5060396;28;20574;-81
2021/10/19 02:34:51;;;;;;;1.20;1.10;;;8.90;99.90;;;;;;5064461;28;20294;-80
2021/10/19 02:37:17;;;;;;;1.70;0.97;;;8.90;99.90;;;;;;5057389;28;20274;-81
2021/10/19 02:39:43;;;;;;;1.67;1.17;;;8.80;99.90;;;;;;5059857;28;20212;-81
2021/10/19 02:42:08;;;;;;;0.87;0.67;;;8.80;99.90;;;;;;5047117;28;20204;-80
2021/10/19 02:44:34;;;;;;;1.60;1.07;;;8.70;99.90;;;;;;5051632;28;20280;-79
2021/10/19 02:47:00;;;;;;;1.43;0.53;;;8.80;99.90;;;;;;5066380;28;20237;-80
2021/10/19 02:49:25;;;;;;;5.63;1.03;;;8.80;99.90;;;;;;5061873;28;20207;-80
2021/10/19 02:51:51;;;;;;;1.87;1.10;;;8.70;99.90;;;;;;5049794;28;20596;-80
2021/10/19 02:54:16;;;;;;;0.77;0.60;;;8.90;99.90;;;;;;5061695;28;20637;-80
2021/10/19 02:56:42;;;;;;;1.03;0.60;;;8.90;99.90;;;;;;5060787;28;20689;-80
2021/10/19 02:59:08;;;;;;;1.37;0.30;;;9.20;99.90;;;;;;5047904;28;20249;-80
2021/10/19 03:01:33;;;;;;;2.93;1.13;;;9.10;99.90;;;;;;5058567;28;20727;-80
2021/10/19 03:03:59;;;;;;;1.00;0.90;;;8.90;99.90;;;;;;5064944;28;20258;-80
2021/10/19 03:06:25;;;;;;;2.00;1.23;;;8.90;99.90;;;;;;5065567;28;20211;-80
2021/10/19 03:08:50;;;;;;;0.93;0.93;;;8.80;99.90;;;;;;5061704;28;20287;-80
2021/10/19 03:11:16;;;;;;;1.43;1.33;;;8.90;99.90;;;;;;5058728;28;20217;-80
2021/10/19 03:13:42;;;;;;;1.27;0.80;;;8.90;99.90;;;;;;5059769;28;20221;-80
2021/10/19 03:16:07;;;;;;;1.27;1.17;;;9.10;99.90;;;;;;5058684;28;20182;-80
2021/10/19 03:18:33;;;;;;;0.87;0.53;;;9.20;99.90;;;;;;5047490;28;20568;-80
2021/10/19 03:20:58;;;;;;;1.00;1.00;;;9.10;99.90;;;;;;5050937;28;20193;-81
2021/10/19 03:23:24;;;;;;;1.50;0.77;;;8.90;99.90;;;;;;5048219;28;20194;-81
2021/10/19 03:25:49;;;;;;;1.23;0.77;;;9.00;99.90;;;;;;5058715;28;20245;-80
2021/10/19 03:28:15;;;;;;;1.40;0.63;;;9.00;99.90;;;;;;5052060;28;20207;-80
2021/10/19 03:30:41;;;;;;;1.20;0.67;;;9.10;99.90;;;;;;5053218;28;20271;-80
2021/10/19 03:33:06;;;;;;;0.43;0.43;;;9.30;99.90;;;;;;5051299;28;20204;-80
2021/10/19 03:35:32;;;;;;;1.70;1.13;;;9.40;99.90;;;;;;5058599;28;20214;-80
2021/10/19 03:37:58;;;;;;;0.67;0.67;;;9.60;99.90;;;;;;5046986;28;20203;-80
2021/10/19 03:40:23;;;;;;;1.63;1.47;;;9.60;99.90;;;;;;5058466;28;20279;-80
2021/10/19 03:42:49;;;;;;;1.00;0.93;;;9.50;99.90;;;;;;5056378;28;20200;-80
2021/10/19 03:45:16;;;;;;;1.50;1.00;;;9.30;99.90;;;;;;5066179;28;20192;-80
2021/10/19 03:47:42;;;;;;;3.70;0.90;;;9.00;99.90;;;;;;5058139;28;20204;-80
2021/10/19 03:50:09;;;;;;;1.03;0.73;;;9.10;99.90;;;;;;5038886;28;20205;-80
2021/10/19 03:52:34;;;;;;;2.00;1.07;;;9.20;99.90;;;;;;5060505;28;20785;-80
2021/10/19 03:55:00;;;;;;;0.97;0.80;;;9.30;99.90;;;;;;5047007;28;20306;-80
2021/10/19 03:57:25;;;;;;;0.37;0.37;;;9.40;99.90;;;;;;5078361;28;20959;-80
2021/10/19 03:59:51;;;;;;;0.73;0.73;;;9.40;99.90;;;;;;5040919;28;20172;-80
2021/10/19 04:02:17;;;;;;;0.57;0.57;;;9.60;99.90;;;;;;5047930;28;20248;-80
2021/10/19 04:04:42;;;;;;;4.10;0.70;;;9.70;99.90;;;;;;5054519;28;20189;-81
2021/10/19 04:07:10;;;;;;;1.23;0.90;;;9.70;99.90;;;;;;5051340;28;20236;-80
2021/10/19 04:09:36;;;;;;;1.43;1.10;;;9.80;99.90;;;;;;5048096;28;20219;-80
2021/10/19 04:12:01;;;;;;;0.67;0.33;;;9.80;99.90;;;;;;5043432;28;20668;-80
2021/10/19 04:14:27;;;;;;;0.63;0.63;;;9.90;99.90;;;;;;5054232;28;20558;-80
2021/10/19 04:16:53;;;;;;;1.97;1.87;;;9.60;99.90;;;;;;5050790;28;20217;-81
2021/10/19 04:19:18;;;;;;;1.57;0.90;;;9.40;99.90;;;;;;5040802;28;20189;-80
2021/10/19 04:21:47;;;;;;;1.73;1.37;;;9.50;99.90;;;;;;5044776;28;20646;-80
2021/10/19 04:24:14;;;;;;;1.00;0.90;;;9.40;99.90;;;;;;5048831;28;20242;-80
2021/10/19 04:26:40;;;;;;;1.10;1.03;;;9.40;99.90;;;;;;5038232;28;20199;-80
2021/10/19 04:29:05;;;;;;;2.33;1.63;;;9.50;99.90;;;;;;5046294;28;21026;-80
2021/10/19 04:31:31;;;;;;;4.63;2.17;;;9.20;99.90;;;;;;5057398;28;20178;-80
2021/10/19 04:33:59;;;;;;;1.50;1.37;;;8.90;99.90;;;;;;5049887;28;20205;-80
2021/10/19 04:36:26;;;;;;;1.80;0.77;;;8.60;99.90;;;;;;5041677;28;20205;-80
2021/10/19 04:38:51;;;;;;;0.87;0.67;;;8.60;99.90;;;;;;5042990;28;20997;-80
2021/10/19 04:41:17;;;;;;;1.20;1.10;;;8.60;99.90;;;;;;5046481;28;20189;-80
2021/10/19 04:43:42;;;;;;;1.33;1.23;;;8.80;99.90;;;;;;5040043;28;20182;-81
2021/10/19 04:46:08;;;;;;;1.23;1.13;;;8.70;99.90;;;;;;5052402;28;20187;-80
2021/10/19 04:48:34;;;;;;;1.13;1.03;;;8.50;99.90;;;;;;5050223;28;20189;-80
2021/10/19 04:50:59;;;;;;;1.83;1.33;;;8.70;99.90;;;;;;5041203;28;20190;-80
2021/10/19 04:53:25;;;;;;;3.07;0.90;;;8.80;99.90;;;;;;5039202;28;20205;-80
2021/10/19 04:55:50;;;;;;;0.90;0.90;;;8.80;99.90;;;;;;5080693;28;20527;-79
2021/10/19 04:58:16;;;;;;;0.80;0.80;;;9.00;99.90;;;;;;5049998;28;20568;-80
2021/10/19 05:00:43;;;;;;;0.57;0.57;;;9.20;99.90;;;;;;5052040;28;20664;-79
2021/10/19 05:03:09;;;;;;;1.17;0.70;;;9.30;99.90;;;;;;5067417;28;20636;-80
2021/10/19 05:05:34;;;;;;;0.83;0.83;;;9.40;99.90;;;;;;5077989;28;20192;-80
2021/10/19 05:08:00;;;;;;;0.40;0.40;;;9.40;99.90;;;;;;5051387;28;20213;-80
2021/10/19 05:10:25;;;;;;;0.60;0.60;;;9.40;99.90;;;;;;5041253;28;20650;-79
2021/10/19 05:12:51;;;;;;;0.63;0.63;;;9.50;99.90;;;;;;5073368;28;20814;-80
2021/10/19 05:15:17;;;;;;;0.57;0.57;;;9.50;99.90;;;;;;5063407;28;20282;-81
2021/10/19 05:17:44;;;;;;;0.77;0.77;;;9.20;99.90;;;;;;5077645;28;20203;-81
2021/10/19 05:20:10;;;;;;;0.67;0.67;;;9.20;99.90;;;;;;5067117;28;20200;-81
2021/10/19 05:22:36;;;;;;;0.50;0.50;;;9.10;99.90;;;;;;5051800;28;20196;-80
2021/10/19 05:25:03;;;;;;;2.30;0.57;;;9.10;99.90;;;;;;5052204;28;20180;-80
2021/10/19 05:27:28;;;;;;;1.13;1.03;;;9.20;99.90;;;;;;5051556;28;20223;-79
2021/10/19 05:29:54;;;;;;;0.90;0.90;;;9.40;99.90;;;;;;5065924;28;20654;-80
2021/10/19 05:32:19;;;;;;;0.90;0.60;;;9.50;99.90;;;;;;5059939;28;20210;-80
2021/10/19 05:34:45;;;;;;;1.00;0.77;;;9.60;99.90;;;;;;5052462;28;20273;-79
2021/10/19 05:37:11;;;;;;;1.67;0.90;;;9.60;99.90;;;;;;5065421;28;20206;-79
2021/10/19 05:39:37;;;;;;;0.27;0.27;;;9.70;99.90;;;;;;5054954;28;20213;-79
2021/10/19 05:42:04;;;;;;;0.43;0.43;;;9.70;99.90;;;;;;5053279;28;20190;-81
2021/10/19 05:44:30;;;;;;;1.33;1.23;;;9.70;99.90;;;;;;5043622;28;20649;-83
2021/10/19 05:46:55;;;;;;;0.77;0.77;;;9.70;99.90;;;;;;5044277;28;20255;-83
2021/10/19 05:49:21;;;;;;;0.97;0.97;;;9.70;99.90;;;;;;5037321;28;20238;-82
2021/10/19 05:51:48;;;;;;;0.50;0.50;;;9.60;99.90;;;;;;5053175;28;20267;-82
2021/10/19 05:54:15;;;;;;;1.00;0.63;;;9.20;99.90;;;;;;5044189;28;20205;-84
2021/10/19 05:56:41;;;;;;;0.60;0.60;;;8.80;99.90;;;;;;5052182;28;20587;-81
2021/10/19 05:59:06;;;;;;;0.90;0.87;;;8.80;99.90;;;;;;5050355;28;20188;-82
2021/10/19 06:01:32;;;;;;;0.77;0.77;;;8.60;99.90;;;;;;5044964;28;20185;-82
2021/10/19 06:03:57;;;;;;;0.30;0.30;;;8.60;99.90;;;;;;5048411;28;20193;-81
2021/10/19 06:06:23;;;;;;;0.60;0.60;;;8.80;99.90;;;;;;5050146;28;20212;-80
2021/10/19 06:08:51;;;;;;;1.87;0.80;;;8.70;99.90;;;;;;5056759;28;20288;-80
2021/10/19 06:11:18;;;;;;;0.47;0.33;;;8.90;99.90;;;;;;5056541;28;20526;-80
2021/10/19 06:13:44;;;;;;;0.77;0.77;;;9.00;99.90;;;;;;5047391;28;20595;-80
2021/10/19 06:16:09;;;;;;;2.03;0.87;;;8.90;99.90;;;;;;5054989;28;20179;-81
2021/10/19 06:18:35;;;;;;;0.80;0.67;;;8.80;99.90;;;;;;5042976;28;20179;-80
2021/10/19 06:21:01;;;;;;;0.70;0.70;;;8.70;99.90;;;;;;5045937;28;20182;-80
2021/10/19 06:23:27;;;;;;;0.53;0.53;;;8.60;99.90;;;;;;5052541;28;20647;-81
2021/10/19 06:25:54;;;;;;;0.90;0.90;;;8.80;99.90;;;;;;5055951;28;20211;-81
2021/10/19 06:28:23;;;;;;;0.80;0.80;;;8.70;99.90;;;;;;5057254;28;20237;-82
2021/10/19 06:30:48;;;;;;;1.33;1.07;;;8.90;99.90;;;;;;5039931;28;20198;-81
2021/10/19 06:33:14;;;;;;;0.97;0.50;;;8.90;99.90;;;;;;5044485;28;20209;-82
2021/10/19 06:35:41;;;;;;;1.10;1.00;;;9.10;99.90;;;;;;5036862;28;20216;-82
2021/10/19 06:38:07;;;;;;;5.93;1.10;;;8.80;99.90;;;;;;5044798;28;20206;-81
2021/10/19 06:40:32;;;;;;;1.20;0.87;;;8.60;99.90;;;;;;5043260;28;20263;-81
2021/10/19 06:42:58;;;;;;;1.20;0.93;;;8.40;99.90;;;;;;5057176;28;20184;-82
2021/10/19 06:45:24;;;;;;;4.57;0.80;;;8.30;99.90;;;;;;5048210;28;20275;-81
2021/10/19 06:47:50;;;;;;;0.50;0.50;;;8.30;99.90;;;;;;5074338;28;20205;-82
2021/10/19 06:50:16;;;;;;;1.30;0.63;;;8.50;99.90;;;;;;5051087;28;20227;-80
2021/10/19 06:52:41;;;;;;;0.73;0.60;;;8.70;99.90;;;;;;5045601;28;20216;-81
2021/10/19 06:55:08;;;;;;;1.27;0.70;;;8.70;99.90;;;;;;5047613;28;20666;-81
2021/10/19 06:57:44;;;;;;;0.87;0.80;;;8.50;99.90;;;;;;5048489;28;20197;-82
2021/10/19 07:00:12;;;;;;;1.00;0.90;;;8.50;99.90;;;;;;5044444;28;20173;-81
2021/10/19 07:02:37;;;;;;;1.17;1.17;;;8.70;99.90;;;;;;5036073;28;20673;-81
2021/10/19 07:05:04;;;;;;;1.47;1.37;;;8.50;99.90;;;;;;5048160;28;20191;-81
2021/10/19 07:07:30;;;;;;;1.40;1.30;;;8.40;99.90;;;;;;5049493;28;20231;-81
2021/10/19 07:09:55;;;;;;;0.73;0.73;;;8.30;99.90;;;;;;5046779;28;20185;-80
2021/10/19 07:12:21;;;;;;;1.50;1.40;;;8.20;99.90;;;;;;5046531;28;20208;-80
2021/10/19 07:14:48;;;;;;;0.80;0.80;;;8.20;99.90;;;;;;5055331;28;20647;-80
2021/10/19 07:17:14;;;;;;;0.93;0.63;;;8.30;99.90;;;;;;5052317;28;20205;-80
2021/10/19 07:19:40;;;;;;;0.87;0.63;;;8.40;99.90;;;;;;5042541;28;20255;-81
2021/10/19 07:22:06;;;;;;;0.30;0.30;;;8.50;99.90;;;;;;5049424;28;20194;-80
2021/10/19 07:24:32;;;;;;;0.60;0.57;;;8.60;99.90;;;;;;5078103;28;20180;-80
2021/10/19 07:26:57;;;;;;;0.20;0.20;;;8.60;99.90;;;;;;5035880;28;20219;-80
2021/10/19 07:29:23;;;;;;;0.93;0.93;;;8.80;99.90;;;;;;5046292;28;20193;-80
2021/10/19 07:31:49;;;;;;;1.27;1.20;;;9.00;99.90;;;;;;5037763;28;20257;-80
2021/10/19 07:34:14;;;;;;;0.53;0.53;;;8.80;99.90;;;;;;5043535;28;20193;-80
2021/10/19 07:36:40;;;;;;;0.40;0.40;;;8.70;99.90;;;;;;5034449;28;20699;-80
2021/10/19 07:39:07;;;;;;;0.30;0.30;;;8.90;99.90;;;;;;5044706;28;20186;-80
2021/10/19 07:41:34;;;;;;;1.07;0.53;;;8.90;99.90;;;;;;5045837;28;20185;-80
2021/10/19 07:44:00;;;;;;;0.40;0.30;;;9.00;99.90;;;;;;5045701;28;20551;-80
2021/10/19 07:46:26;;;;;;;0.23;0.23;;;9.20;99.90;;;;;;5048936;28;20204;-80
2021/10/19 07:48:51;;;;;;;0.23;0.23;;;9.20;99.90;;;;;;5048566;28;20223;-80
2021/10/19 07:51:17;;;;;;;0.43;0.43;;;9.00;99.90;;;;;;5049912;28;20196;-80
2021/10/19 07:53:44;;;;;;;0.50;0.40;;;8.90;99.90;;;;;;5042491;28;20295;-80
2021/10/19 07:56:10;;;;;;;0.70;0.50;;;8.80;99.90;;;;;;5036210;28;20673;-81
2021/10/19 07:58:36;;;;;;;0.23;0.23;;;8.80;99.90;;;;;;5041396;28;20183;-81
2021/10/19 08:01:01;;;;;;;0.40;0.40;;;8.80;99.90;;;;;;5044197;28;20176;-80
2021/10/19 08:03:27;;;;;;;0.30;0.30;;;8.90;99.90;;;;;;5038496;28;20250;-80
2021/10/19 08:05:53;;;;;;;0.83;0.83;;;8.90;99.90;;;;;;5037841;28;20224;-80
2021/10/19 08:08:19;;;;;;;0.37;0.37;;;8.90;99.90;;;;;;5034566;28;20223;-80
2021/10/19 08:10:46;;;;;;;0.13;0.13;;;8.90;99.90;;;;;;5050893;28;20185;-80
2021/10/19 08:13:13;;;;;;;0.20;0.20;;;9.00;99.90;;;;;;5053378;28;20235;-80
2021/10/19 08:15:40;;;;;;;4.23;0.60;;;8.90;99.90;;;;;;5044324;28;20266;-80
2021/10/19 08:18:06;;;;;;;0.17;0.17;;;8.90;99.90;;;;;;5039494;28;20197;-81
2021/10/19 08:20:32;;;;;;;0.20;0.20;;;9.00;99.90;;;;;;5053435;28;20193;-79
2021/10/19 08:22:58;;;;;;;0.10;0.10;;;9.10;99.90;;;;;;5050090;28;20196;-80
2021/10/19 08:25:24;;;;;;;0.10;0.10;;;9.00;99.90;;;;;;5050510;28;20228;-80
2021/10/19 08:27:50;;;;;;;1.23;0.73;;;8.90;99.90;;;;;;5052096;28;20239;-80
2021/10/19 08:30:18;;;;;;;0.37;0.37;;;9.00;99.90;;;;;;5046808;28;20277;-80
2021/10/19 08:32:44;;;;;;;0.43;0.30;;;9.00;99.90;;;;;;5092286;28;20258;-80
2021/10/19 08:35:11;;;;;;;0.10;0.10;;;8.90;99.90;;;;;;5046470;28;20191;-80
2021/10/19 08:37:36;;;;;;;0.07;0.07;;;9.10;99.90;;;;;;5055315;28;20199;-80
2021/10/19 08:40:03;;;;;;;0.10;0.10;;;9.00;99.90;;;;;;5062737;28;20277;-81
2021/10/19 08:42:29;;;;;;;2.37;0.40;;;9.00;99.90;;;;;;5044991;28;20193;-80
2021/10/19 08:44:55;;;;;;;0.30;0.30;;;9.00;99.90;;;;;;5046292;28;20532;-79
2021/10/19 08:47:21;;;;;;;0.53;0.37;;;9.00;99.90;;;;;;5054084;28;20647;-80
2021/10/19 08:49:47;;;;;;;0.20;0.20;;;9.00;99.90;;;;;;5052912;28;20694;-79
2021/10/19 08:52:13;;;;;;;0.27;0.27;;;9.10;99.90;;;;;;5053144;28;20191;-79
2021/10/19 08:54:39;;;;;;;0.10;0.10;;;9.10;99.90;;;;;;5049978;28;20277;-80
2021/10/19 08:57:13;;;;;;;0.93;0.30;;;9.20;99.90;;;;;;5045448;28;20689;-79
2021/10/19 08:59:45;;;;;;;0.10;0.10;;;9.10;99.90;;;;;;5057443;28;20222;-80
2021/10/19 09:02:12;;;;;;;0.27;0.27;;;9.10;99.90;;;;;;5053520;28;20180;-80
2021/10/19 09:04:38;;;;;;;0.20;0.20;;;9.10;99.90;;;;;;5050746;28;20185;-80
2021/10/19 09:07:04;;;;;;;0.87;0.87;;;9.10;99.90;;;;;;5045915;28;20194;-81
2021/10/19 09:09:30;;;;;;;0.40;0.40;;;9.10;99.90;;;;;;5082269;28;20184;-81
2021/10/19 09:11:57;;;;;;;0.60;0.60;;;9.20;99.90;;;;;;5049329;28;20189;-81
2021/10/19 09:14:34;;;;;;;0.30;0.30;;;9.20;99.90;;;;;;5048279;28;20208;-80
2021/10/19 09:17:02;;;;;;;3.70;0.37;;;9.30;99.90;;;;;;5046998;28;20222;-81
2021/10/19 09:19:29;;;;;;;0.47;0.47;;;9.30;99.90;;;;;;5049805;28;20682;-82
2021/10/19 09:22:04;;;;;;;0.17;0.17;;;9.30;99.90;;;;;;5048604;28;20211;-81
2021/10/19 09:24:41;;;;;;;0.10;0.10;;;9.20;99.90;;;;;;5056019;28;20252;-80
2021/10/19 09:27:15;;;;;;;0.20;0.20;;;9.20;99.90;;;;;;5039579;28;20281;-80
2021/10/19 09:29:43;;;;;;;0.30;0.20;;;9.30;99.90;;;;;;5048761;28;20671;-80
2021/10/19 09:32:12;;;;;;;0.10;0.10;;;9.30;99.90;;;;;;5045516;28;20263;-80
2021/10/19 09:34:37;;;;;;;0.20;0.20;;;9.30;99.90;;;;;;5046025;28;20185;-80
2021/10/19 09:37:05;;;;;;;0.70;0.57;;;9.30;99.90;;;;;;5047934;28;20228;-79
2021/10/19 09:39:34;;;;;;;0.20;0.20;;;9.30;99.90;;;;;;5046199;28;20202;-79
2021/10/19 09:42:03;;;;;;;0.33;0.33;;;9.40;99.90;;;;;;5047250;28;20197;-79
2021/10/19 09:44:29;;;;;;;0.20;0.20;;;9.40;99.90;;;;;;5056567;28;20190;-80
2021/10/19 09:46:55;;;;;;;0.83;0.83;;;9.40;99.90;;;;;;5044706;28;20206;-80
2021/10/19 09:49:24;;;;;;;0.30;0.30;;;9.40;99.90;;;;;;5076183;28;20185;-79
2021/10/19 09:51:50;;;;;;;0.30;0.30;;;9.50;99.90;;;;;;5061505;28;20695;-79
2021/10/19 09:54:20;;;;;;;0.40;0.30;;;9.60;99.90;;;;;;5048013;28;20202;-80
2021/10/19 09:56:47;;;;;;;0.13;0.13;;;9.50;99.90;;;;;;5062974;28;20201;-79
2021/10/19 09:59:16;;;;;;;0.10;0.10;;;9.60;99.90;;;;;;5049349;28;20202;-79
2021/10/19 10:01:42;;;;;;;0.20;0.20;;;9.70;99.90;;;;;;5061595;28;20557;-80
2021/10/19 10:04:09;;;;;;;0.17;0.17;;;9.70;99.90;;;;;;5058370;28;20602;-80
2021/10/19 10:06:35;;;;;;;0.43;0.43;;;9.60;99.90;;;;;;5051009;28;20244;-80
2021/10/19 10:09:02;;;;;;;0.10;0.10;;;9.50;99.90;;;;;;5056308;28;20183;-80
2021/10/19 10:11:28;;;;;;;0.50;0.20;;;9.50;99.90;;;;;;5056992;28;20185;-80
2021/10/19 10:13:58;;;;;;;0.30;0.30;;;9.60;99.90;;;;;;5050605;28;20612;-80
2021/10/19 10:16:25;;;;;;;0.10;0.10;;;9.60;99.90;;;;;;5046767;28;20207;-80
2021/10/19 10:18:51;;;;;;;0.20;0.20;;;9.60;99.90;;;;;;5054995;28;20179;-80
2021/10/19 10:21:19;;;;;;;0.30;0.30;;;9.60;99.90;;;;;;5054297;28;20231;-80
2021/10/19 10:23:45;;;;;;;0.70;0.63;;;9.70;99.90;;;;;;5049696;28;20245;-79
2021/10/19 10:26:23;;;;;;;0.10;0.10;;;9.80;99.90;;;;;;5056460;28;20234;-80
2021/10/19 10:28:48;;;;;;;0.20;0.20;;;9.70;99.90;;;;;;5057094;28;20566;-80
2021/10/19 10:31:19;;;;;;;0.20;0.20;;;9.80;99.90;;;;;;5048307;28;20189;-80
2021/10/19 10:33:50;;;;;;;0.20;0.20;;;9.90;99.90;;;;;;5047881;28;20220;-80
2021/10/19 10:36:16;;;;;;;0.10;0.10;;;9.90;99.90;;;;;;5038750;28;20574;-80
2021/10/19 10:38:54;;;;;;;0.10;0.10;;;9.90;99.90;;;;;;5045820;28;20201;-80
2021/10/19 10:41:20;;;;;;;0.30;0.30;;;10.10;99.90;;;;;;5046002;28;20593;-80
2021/10/19 10:43:59;;;;;;;0.10;0.10;;;10.20;99.90;;;;;;5080289;28;20192;-80
2021/10/19 10:46:24;;;;;;;0.23;0.23;;;10.10;99.90;;;;;;5065853;28;20700;-80
2021/10/19 10:48:53;;;;;;;0.63;0.33;;;10.00;99.90;;;;;;5058092;28;20189;-80
2021/10/19 10:51:46;;;;;;;0.33;0.33;;;10.00;99.90;;;;;;5038347;28;20283;-80
2021/10/19 10:54:15;;;;;;;0.03;0.03;;;10.10;99.90;;;;;;5046279;28;20247;-80
2021/10/19 10:56:44;;;;;;;0.47;0.47;;;10.20;99.90;;;;;;5041921;28;20236;-80
2021/10/19 10:59:10;;;;;;;0.10;0.10;;;10.20;99.90;;;;;;5049069;28;20646;-80
2021/10/19 11:01:35;;;;;;;0.30;0.30;;;10.20;99.90;;;;;;5055973;28;20194;-80
2021/10/19 11:04:09;;;;;;;0.53;0.30;;;10.20;99.90;;;;;;5043139;28;20204;-80
2021/10/19 11:06:38;;;;;;;0.70;0.57;;;10.10;99.90;;;;;;5045469;28;20206;-80
2021/10/19 11:09:07;;;;;;;0.57;0.50;;;10.20;99.90;;;;;;5041797;28;20206;-80
2021/10/19 11:11:39;;;;;;;0.63;0.63;;;10.20;99.90;;;;;;5042924;28;20207;-80
2021/10/19 11:14:12;;;;;;;0.10;0.10;;;10.30;99.90;;;;;;5055970;28;20346;-81
2021/10/19 11:16:44;;;;;;;0.10;0.10;;;10.20;99.90;;;;;;5045931;28;20211;-80
2021/10/19 11:19:31;;;;;;;0.50;0.50;;;10.30;99.90;;;;;;5055812;28;20181;-80
2021/10/19 11:22:03;;;;;;;0.70;0.67;;;10.40;99.90;;;;;;5045489;28;20223;-80
2021/10/19 11:24:31;;;;;;;2.10;1.70;;;10.40;99.90;;;;;;5046415;28;20315;-80
2021/10/19 11:27:00;;;;;;;2.10;1.20;;;10.50;99.90;;;;;;5046844;28;20283;-80
2021/10/19 11:29:26;;;;;;;0.70;0.70;;;10.50;99.90;;;;;;5038802;28;20244;-80
2021/10/19 11:31:52;;;;;;;3.63;0.80;;;10.40;99.90;;;;;;5069877;28;20240;-79
2021/10/19 11:34:18;;;;;;;2.13;1.87;;;10.40;99.90;;;;;;5061915;28;20783;-80
2021/10/19 11:36:44;;;;;;;0.73;0.67;;;10.40;99.90;;;;;;5058197;28;20315;-80
2021/10/19 11:39:14;;;;;;;0.40;0.40;;;10.50;99.90;;;;;;5041743;28;20329;-80
2021/10/19 11:41:44;;;;;;;0.97;0.70;;;10.50;99.90;;;;;;5043355;28;20175;-80
2021/10/19 11:44:10;;;;;;;0.53;0.53;;;10.50;99.90;;;;;;5084541;28;20187;-79
2021/10/19 11:46:36;;;;;;;0.47;0.47;;;10.50;99.90;;;;;;5058728;28;20558;-80
2021/10/19 11:49:08;;;;;;;0.40;0.33;;;10.50;99.90;;;;;;5059102;28;20184;-80
2021/10/19 11:51:34;;;;;;;2.07;0.43;;;10.80;99.90;;;;;;5060279;28;20269;-79
2021/10/19 11:54:05;;;;;;;0.50;0.50;;;10.80;99.90;;;;;;5042296;28;20211;-79
2021/10/19 11:56:31;;;;;;;0.20;0.20;;;10.60;99.90;;;;;;5053352;28;20761;-79
2021/10/19 11:59:04;;;;;;;0.30;0.30;;;10.60;99.90;;;;;;5054001;28;20179;-80
2021/10/19 12:01:39;;;;;;;0.30;0.30;;;10.50;99.90;;;;;;5060543;28;20188;-79
2021/10/19 12:04:06;;;;;;;0.40;0.40;;;10.60;99.90;;;;;;5056912;28;20184;-80
2021/10/19 12:06:34;;;;;;;0.27;0.27;;;10.70;99.90;;;;;;5052592;28;20550;-79
2021/10/19 12:09:17;;;;;;;0.50;0.50;;;10.80;99.90;;;;;;5041743;28;20239;-79
2021/10/19 12:11:54;;;;;;;0.30;0.30;;;10.70;99.90;;;;;;5055394;28;20195;-80
2021/10/19 12:14:31;;;;;;;0.70;0.30;;;10.80;99.90;;;;;;5045366;28;20613;-80
2021/10/19 12:17:00;;;;;;;0.67;0.30;;;10.80;99.90;;;;;;5049042;28;20865;-80
2021/10/19 12:19:27;;;;;;;0.53;0.53;;;10.80;99.90;;;;;;5043857;28;20180;-80
2021/10/19 12:22:04;;;;;;;0.20;0.20;;;10.90;99.90;;;;;;5050046;28;20544;-80
2021/10/19 12:24:36;;;;;;;0.53;0.50;;;10.90;99.90;;;;;;5049301;28;20733;-80
2021/10/19 12:27:07;;;;;;;0.40;0.40;;;10.90;99.90;;;;;;5039562;28;20216;-80
2021/10/19 12:29:35;;;;;;;0.27;0.27;;;10.90;99.90;;;;;;5049723;28;20201;-80
2021/10/19 12:32:02;;;;;;;0.50;0.40;;;11.00;99.90;;;;;;5046262;28;20668;-80
2021/10/19 12:34:28;;;;;;;1.07;0.83;;;11.10;99.90;;;;;;5050429;28;20614;-79
2021/10/19 12:37:03;;;;;;;0.10;0.10;;;11.30;99.90;;;;;;5058012;28;20200;-79
2021/10/19 12:39:29;;;;;;;0.30;0.30;;;11.20;99.90;;;;;;5052097;28;20186;-79
2021/10/19 12:41:56;;;;;;;0.80;0.57;;;11.30;99.90;;;;;;5056530;28;20213;-80
2021/10/19 12:44:25;;;;;;;2.10;1.10;;;11.40;99.90;;;;;;5061246;28;20192;-80
2021/10/19 12:46:50;;;;;;;0.80;0.77;;;11.20;99.90;;;;;;5059111;28;20214;-79
2021/10/19 12:49:17;;;;;;;0.50;0.40;;;11.20;99.90;;;;;;5046729;28;20173;-80
2021/10/19 12:51:44;;;;;;;0.23;0.23;;;11.40;99.90;;;;;;5051004;28;20267;-80
2021/10/19 12:54:10;;;;;;;0.50;0.30;;;11.50;99.90;;;;;;5050588;28;20216;-79